createdAt,value
2018-08-13T00:02:16.200Z,62.34
2018-08-13T00:04:43.926Z,62.09
2018-08-13T00:07:11.631Z,63.06
2018-08-13T00:09:41.844Z,62.85
2018-08-13T00:12:10.382Z,63.48
2018-08-13T00:14:38.196Z,62.15
2018-08-13T00:17:06.179Z,62.86
2018-08-13T00:19:33.907Z,62.59
2018-08-13T00:22:01.830Z,62.80
2018-08-13T00:24:29.549Z,62.14
2018-08-13T00:26:57.231Z,62.55
2018-08-13T00:29:24.913Z,62.44
2018-08-13T00:31:52.576Z,62.66
2018-08-13T00:34:20.297Z,63.63
2018-08-13T00:36:48.020Z,62.87
2018-08-13T00:39:15.685Z,63.05
2018-08-13T00:41:43.391Z,63.19
2018-08-13T00:44:11.135Z,63.54
2018-08-13T00:46:38.888Z,62.70
2018-08-13T00:49:06.551Z,63.80
2018-08-13T00:51:35.118Z,63.87
2018-08-13T00:54:02.949Z,62.86
2018-08-13T00:56:30.686Z,63.94
2018-08-13T00:58:58.453Z,63.95
2018-08-13T01:01:26.226Z,64.42
2018-08-13T01:03:54.247Z,64.61
2018-08-13T01:06:22.020Z,64.10
2018-08-13T01:08:49.997Z,65.60
2018-08-13T01:11:17.776Z,66.28
2018-08-13T01:13:45.483Z,66.04
2018-08-13T01:16:13.263Z,67.05
2018-08-13T01:18:40.955Z,67.30
2018-08-13T01:21:08.648Z,66.15
2018-08-13T01:23:36.352Z,66.29
2018-08-13T01:26:04.043Z,65.48
2018-08-13T01:28:31.772Z,65.25
2018-08-13T01:30:59.539Z,65.56
2018-08-13T01:33:27.177Z,65.21
2018-08-13T01:35:55.022Z,65.33
2018-08-13T01:38:22.710Z,65.33
2018-08-13T01:40:50.389Z,64.35
2018-08-13T01:43:18.137Z,64.29
2018-08-13T01:45:45.803Z,64.98
2018-08-13T01:48:13.464Z,66.11
2018-08-13T01:50:41.156Z,65.00
2018-08-13T01:53:09.629Z,64.85
2018-08-13T01:55:37.417Z,64.84
2018-08-13T01:58:05.439Z,65.40
2018-08-13T02:00:33.111Z,65.05
2018-08-13T02:03:00.807Z,65.80
2018-08-13T02:05:28.504Z,65.35
2018-08-13T02:07:56.175Z,65.41
2018-08-13T02:10:23.885Z,65.17
2018-08-13T02:12:51.649Z,65.35
2018-08-13T02:15:19.360Z,65.28
2018-08-13T02:17:47.144Z,65.33
2018-08-13T02:20:14.900Z,65.34
2018-08-13T02:22:42.617Z,65.12
2018-08-13T02:25:10.353Z,65.69
2018-08-13T02:27:38.257Z,66.04
2018-08-13T02:30:08.071Z,66.18
2018-08-13T02:32:35.883Z,66.27
2018-08-13T02:35:03.954Z,67.08
2018-08-13T02:37:31.704Z,66.48
2018-08-13T02:39:59.366Z,66.92
2018-08-13T02:42:27.158Z,67.94
2018-08-13T02:44:54.876Z,67.70
2018-08-13T02:47:22.617Z,68.43
2018-08-13T02:49:50.448Z,68.44
2018-08-13T02:52:18.162Z,68.33
2018-08-13T02:54:45.862Z,67.60
2018-08-13T02:57:13.559Z,67.32
2018-08-13T02:59:41.246Z,66.61
2018-08-13T03:02:08.952Z,67.60
2018-08-13T03:04:36.785Z,67.56
2018-08-13T03:07:04.750Z,66.46
2018-08-13T03:09:32.561Z,66.61
2018-08-13T03:12:00.256Z,66.53
2018-08-13T03:14:28.014Z,66.75
2018-08-13T03:16:55.742Z,67.18
2018-08-13T03:19:23.638Z,66.96
2018-08-13T03:21:51.323Z,66.75
2018-08-13T03:24:19.037Z,68.00
2018-08-13T03:26:46.764Z,68.37
2018-08-13T03:29:14.517Z,67.59
2018-08-13T03:31:42.202Z,66.87
2018-08-13T03:34:09.934Z,66.79
2018-08-13T03:36:37.642Z,66.26
2018-08-13T03:39:08.568Z,66.07
2018-08-13T03:41:36.338Z,66.09
2018-08-13T03:44:04.100Z,66.28
2018-08-13T03:46:31.776Z,66.21
2018-08-13T03:48:59.461Z,66.03
2018-08-13T03:51:27.173Z,65.61
2018-08-13T03:53:54.857Z,65.93
2018-08-13T03:56:22.733Z,66.17
2018-08-13T03:58:50.469Z,66.14
2018-08-13T04:01:18.146Z,65.61
2018-08-13T04:03:45.929Z,65.97
2018-08-13T04:06:13.622Z,66.06
2018-08-13T04:08:41.302Z,66.69
2018-08-13T04:11:09.038Z,66.24
2018-08-13T04:13:36.773Z,65.97
2018-08-13T04:16:04.492Z,66.20
2018-08-13T04:18:32.378Z,65.98
2018-08-13T04:21:00.097Z,65.31
2018-08-13T04:23:27.811Z,65.32
2018-08-13T04:25:55.569Z,64.80
2018-08-13T04:28:23.276Z,64.04
2018-08-13T04:30:50.988Z,63.47
2018-08-13T04:33:18.714Z,62.47
2018-08-13T04:35:46.439Z,62.20
2018-08-13T04:38:14.111Z,61.76
2018-08-13T04:40:41.791Z,61.64
2018-08-13T04:43:09.444Z,61.34
2018-08-13T04:45:37.121Z,61.67
2018-08-13T04:48:05.217Z,61.77
2018-08-13T04:50:32.921Z,61.82
2018-08-13T04:53:00.656Z,61.99
2018-08-13T04:55:28.416Z,61.69
2018-08-13T04:57:56.117Z,62.14
2018-08-13T05:00:23.809Z,62.24
2018-08-13T05:02:51.497Z,62.41
2018-08-13T05:05:19.198Z,62.50
2018-08-13T05:07:46.919Z,62.43
2018-08-13T05:10:14.593Z,62.24
2018-08-13T05:12:42.287Z,62.29
2018-08-13T05:15:10.691Z,62.41
2018-08-13T05:17:38.461Z,61.68
2018-08-13T05:20:07.060Z,61.71
2018-08-13T05:22:34.794Z,61.79
2018-08-13T05:25:02.748Z,61.82
2018-08-13T05:27:30.421Z,61.96
2018-08-13T05:29:58.163Z,61.92
2018-08-13T05:32:25.866Z,61.46
2018-08-13T05:34:53.514Z,61.38
2018-08-13T05:37:21.205Z,61.94
2018-08-13T05:39:48.904Z,61.78
2018-08-13T05:42:16.586Z,61.39
2018-08-13T05:44:44.222Z,62.38
2018-08-13T05:47:12.025Z,62.76
2018-08-13T05:49:39.701Z,62.36
2018-08-13T05:52:07.432Z,62.33
2018-08-13T05:54:35.165Z,63.04
2018-08-13T05:57:02.902Z,63.14
2018-08-13T05:59:30.561Z,62.66
2018-08-13T06:01:58.293Z,62.23
2018-08-13T06:04:26.004Z,62.60
2018-08-13T06:06:53.688Z,62.81
2018-08-13T06:09:21.448Z,63.06
2018-08-13T06:11:49.130Z,62.04
2018-08-13T06:14:16.884Z,61.36
2018-08-13T06:16:44.714Z,60.95
2018-08-13T06:19:12.398Z,60.58
2018-08-13T06:21:40.062Z,59.23
2018-08-13T06:24:07.826Z,58.92
2018-08-13T06:26:35.520Z,58.12
2018-08-13T06:29:04.010Z,58.37
2018-08-13T06:31:31.771Z,58.92
2018-08-13T06:33:59.626Z,57.24
2018-08-13T06:36:27.289Z,57.94
2018-08-13T06:38:55.045Z,56.73
2018-08-13T06:41:22.785Z,56.72
2018-08-13T06:43:50.525Z,56.10
2018-08-13T06:46:18.262Z,55.25
2018-08-13T06:48:46.021Z,55.87
2018-08-13T06:51:13.788Z,53.85
2018-08-13T06:53:41.544Z,54.61
2018-08-13T06:56:09.948Z,54.69
2018-08-13T06:58:37.664Z,54.29
2018-08-13T07:01:05.706Z,54.38
2018-08-13T07:03:33.518Z,53.27
2018-08-13T07:06:01.351Z,53.80
2018-08-13T07:08:29.125Z,54.59
2018-08-13T07:10:56.890Z,54.60
2018-08-13T07:13:24.631Z,54.99
2018-08-13T07:15:52.402Z,54.00
2018-08-13T07:18:20.117Z,53.27
2018-08-13T07:20:47.852Z,52.88
2018-08-13T07:23:15.682Z,54.23
2018-08-13T07:25:43.453Z,53.85
2018-08-13T07:28:11.207Z,53.21
2018-08-13T07:30:39.049Z,53.08
2018-08-13T07:33:06.806Z,53.65
2018-08-13T07:35:34.550Z,53.65
2018-08-13T07:38:02.357Z,52.55
2018-08-13T07:40:30.153Z,52.65
2018-08-13T07:42:57.820Z,53.04
2018-08-13T07:45:25.566Z,52.99
2018-08-13T07:47:53.301Z,52.71
2018-08-13T07:50:21.006Z,52.86
2018-08-13T07:52:48.831Z,52.07
2018-08-13T07:55:16.572Z,51.41
2018-08-13T07:57:44.237Z,51.60
2018-08-13T08:00:14.618Z,51.21
2018-08-13T08:02:42.471Z,51.93
2018-08-13T08:05:10.196Z,52.65
2018-08-13T08:07:37.957Z,51.77
2018-08-13T08:10:08.033Z,51.29
2018-08-13T08:12:35.797Z,52.52
2018-08-13T08:15:04.882Z,51.14
2018-08-13T08:17:32.615Z,51.24
2018-08-13T08:20:00.280Z,51.56
2018-08-13T08:22:28.171Z,51.58
2018-08-13T08:24:55.869Z,51.60
2018-08-13T08:27:23.597Z,51.19
2018-08-13T08:29:51.377Z,51.93
2018-08-13T08:32:19.156Z,50.99
2018-08-13T08:34:46.959Z,51.98
2018-08-13T08:37:14.692Z,51.62
2018-08-13T08:39:42.363Z,51.01
2018-08-13T08:42:10.114Z,51.00
2018-08-13T08:44:37.910Z,50.73
2018-08-13T08:47:05.760Z,49.38
2018-08-13T08:49:33.508Z,49.17
2018-08-13T08:52:01.270Z,49.79
2018-08-13T08:54:28.987Z,49.38
2018-08-13T08:56:56.686Z,49.12
2018-08-13T08:59:24.417Z,49.30
2018-08-13T09:01:52.182Z,50.27
2018-08-13T09:04:19.925Z,49.52
2018-08-13T09:06:47.678Z,50.06
2018-08-13T09:09:15.398Z,50.86
2018-08-13T09:11:43.226Z,50.02
2018-08-13T09:14:11.156Z,50.07
2018-08-13T09:16:39.847Z,49.95
2018-08-13T09:19:18.658Z,49.15
2018-08-13T09:21:50.418Z,49.86
2018-08-13T09:24:29.213Z,49.44
2018-08-13T09:27:08.062Z,49.43
2018-08-13T09:29:46.971Z,49.36
2018-08-13T09:32:28.264Z,50.07
2018-08-13T09:35:00.406Z,49.92
2018-08-13T09:37:28.170Z,50.29
2018-08-13T09:39:56.103Z,49.20
2018-08-13T09:42:24.272Z,49.33
2018-08-13T09:44:52.309Z,48.75
2018-08-13T09:47:19.990Z,48.41
2018-08-13T09:49:47.928Z,48.51
2018-08-13T09:52:15.610Z,48.55
2018-08-13T09:54:43.379Z,48.68
2018-08-13T09:57:11.229Z,48.04
2018-08-13T09:59:38.904Z,47.80
2018-08-13T10:02:06.625Z,48.51
2018-08-13T10:04:34.466Z,49.69
2018-08-13T10:07:02.313Z,49.82
2018-08-13T10:09:29.978Z,48.64
2018-08-13T10:11:57.851Z,48.72
2018-08-13T10:14:25.638Z,47.92
2018-08-13T10:16:53.453Z,48.71
2018-08-13T10:19:21.071Z,48.92
2018-08-13T10:21:48.801Z,48.02
2018-08-13T10:24:16.453Z,48.34
2018-08-13T10:26:44.217Z,48.15
2018-08-13T10:29:11.893Z,48.34
2018-08-13T10:31:39.565Z,48.73
2018-08-13T10:34:07.248Z,48.19
2018-08-13T10:36:34.941Z,48.71
2018-08-13T10:39:03.809Z,47.74
2018-08-13T10:41:31.547Z,46.30
2018-08-13T10:43:59.202Z,46.82
2018-08-13T10:46:26.918Z,47.20
2018-08-13T10:48:54.629Z,46.13
2018-08-13T10:51:22.334Z,47.22
2018-08-13T10:53:50.041Z,47.46
2018-08-13T10:56:17.762Z,47.59
2018-08-13T10:58:45.525Z,47.78
2018-08-13T11:01:13.568Z,46.56
2018-08-13T11:03:41.314Z,46.02
2018-08-13T11:06:08.993Z,46.87
2018-08-13T11:08:36.722Z,46.71
2018-08-13T11:11:04.511Z,45.61
2018-08-13T11:13:32.217Z,45.21
2018-08-13T11:16:00.038Z,44.49
2018-08-13T11:18:27.729Z,45.36
2018-08-13T11:20:55.404Z,45.96
2018-08-13T11:23:23.107Z,46.32
2018-08-13T11:25:50.813Z,46.40
2018-08-13T11:28:18.515Z,45.81
2018-08-13T11:30:46.252Z,46.07
2018-08-13T11:33:13.954Z,45.69
2018-08-13T11:35:41.677Z,45.27
2018-08-13T11:38:09.343Z,46.15
2018-08-13T11:40:37.079Z,45.97
2018-08-13T11:43:04.821Z,46.07
2018-08-13T11:45:32.540Z,45.00
2018-08-13T11:48:00.251Z,45.03
2018-08-13T11:50:27.930Z,45.06
2018-08-13T11:52:55.602Z,44.96
2018-08-13T11:55:23.318Z,45.13
2018-08-13T11:57:51.034Z,45.02
2018-08-13T12:00:18.945Z,45.22
2018-08-13T12:02:46.655Z,45.64
2018-08-13T12:05:15.312Z,45.05
2018-08-13T12:07:43.517Z,45.37
2018-08-13T12:10:11.982Z,45.43
2018-08-13T12:12:40.707Z,44.11
2018-08-13T12:15:09.359Z,45.27
2018-08-13T12:17:37.090Z,45.00
2018-08-13T12:20:07.166Z,44.23
2018-08-13T12:22:34.853Z,44.91
2018-08-13T12:25:02.581Z,44.92
2018-08-13T12:27:30.336Z,44.58
2018-08-13T12:29:58.002Z,45.42
2018-08-13T12:32:25.872Z,45.05
2018-08-13T12:34:53.551Z,45.32
2018-08-13T12:37:21.201Z,45.63
2018-08-13T12:39:48.912Z,45.17
2018-08-13T12:42:16.572Z,44.91
2018-08-13T12:44:44.239Z,45.42
2018-08-13T12:47:11.973Z,44.40
2018-08-13T12:49:39.667Z,44.29
2018-08-13T12:52:07.471Z,43.79
2018-08-13T12:54:35.173Z,43.68
2018-08-13T12:57:02.902Z,44.52
2018-08-13T12:59:30.614Z,44.53
2018-08-13T13:01:58.318Z,44.95
2018-08-13T13:04:26.006Z,44.30
2018-08-13T13:06:53.672Z,44.36
2018-08-13T13:09:21.747Z,44.57
2018-08-13T13:11:49.561Z,43.93
2018-08-13T13:14:17.321Z,44.01
2018-08-13T13:16:45.034Z,44.22
2018-08-13T13:19:12.753Z,43.66
2018-08-13T13:21:40.474Z,42.70
2018-08-13T13:24:08.300Z,43.73
2018-08-13T13:26:36.098Z,43.91
2018-08-13T13:29:04.293Z,43.04
2018-08-13T13:31:31.991Z,43.59
2018-08-13T13:33:59.711Z,44.23
2018-08-13T13:36:27.385Z,43.68
2018-08-13T13:38:55.101Z,42.73
2018-08-13T13:41:22.785Z,44.05
2018-08-13T13:43:50.526Z,43.98
2018-08-13T13:46:18.310Z,43.03
2018-08-13T13:48:50.493Z,41.43
2018-08-13T13:51:18.385Z,43.11
2018-08-13T13:53:46.127Z,42.85
2018-08-13T13:56:13.832Z,44.09
2018-08-13T13:58:41.563Z,43.12
2018-08-13T14:01:09.326Z,41.56
2018-08-13T14:03:37.070Z,41.59
2018-08-13T14:06:04.897Z,42.76
2018-08-13T14:08:32.625Z,43.22
2018-08-13T14:11:00.451Z,42.07
2018-08-13T14:13:28.125Z,42.67
2018-08-13T14:15:55.881Z,41.75
2018-08-13T14:18:23.577Z,42.60
2018-08-13T14:20:51.344Z,42.71
2018-08-13T14:23:19.237Z,41.71
2018-08-13T14:25:46.919Z,42.82
2018-08-13T14:28:14.655Z,41.77
2018-08-13T14:30:42.422Z,40.92
2018-08-13T14:33:10.140Z,40.56
2018-08-13T14:35:37.911Z,40.97
2018-08-13T14:38:05.759Z,41.64
2018-08-13T14:40:33.487Z,41.33
2018-08-13T14:43:01.167Z,41.57
2018-08-13T14:45:29.072Z,41.30
2018-08-13T14:47:56.761Z,40.66
2018-08-13T14:50:24.474Z,41.52
2018-08-13T14:52:52.163Z,41.65
2018-08-13T14:55:21.010Z,42.90
2018-08-13T14:57:48.760Z,42.74
2018-08-13T15:00:21.265Z,43.19
2018-08-13T15:02:49.423Z,42.88
2018-08-13T15:05:17.477Z,39.39
2018-08-13T15:07:45.241Z,39.16
2018-08-13T15:10:14.915Z,40.82
2018-08-13T15:12:43.153Z,40.49
2018-08-13T15:15:12.022Z,40.78
2018-08-13T15:17:40.455Z,40.55
2018-08-13T15:20:11.594Z,40.52
2018-08-13T15:22:39.337Z,40.48
2018-08-13T15:25:07.017Z,40.72
2018-08-13T15:27:35.381Z,40.59
2018-08-13T15:30:03.478Z,41.37
2018-08-13T15:32:31.174Z,40.72
2018-08-13T15:34:58.909Z,42.14
2018-08-13T15:37:26.600Z,42.73
2018-08-13T15:39:54.255Z,43.00
2018-08-13T15:42:22.022Z,43.22
2018-08-13T15:44:49.765Z,42.77
2018-08-13T15:47:17.487Z,43.62
2018-08-13T15:49:45.252Z,42.64
2018-08-13T15:52:12.956Z,42.69
2018-08-13T15:54:40.655Z,43.28
2018-08-13T15:57:08.345Z,43.81
2018-08-13T15:59:36.112Z,43.48
2018-08-13T16:02:03.898Z,43.15
2018-08-13T16:04:31.577Z,42.31
2018-08-13T16:06:59.430Z,42.70
2018-08-13T16:09:27.214Z,42.75
2018-08-13T16:11:54.906Z,42.01
2018-08-13T16:14:23.082Z,41.92
2018-08-13T16:16:50.830Z,41.82
2018-08-13T16:19:18.554Z,41.97
2018-08-13T16:21:46.233Z,42.11
2018-08-13T16:24:13.978Z,42.02
2018-08-13T16:26:41.726Z,42.02
2018-08-13T16:29:09.510Z,42.44
2018-08-13T16:31:37.237Z,41.79
2018-08-13T16:34:05.027Z,42.35
2018-08-13T16:36:32.729Z,42.23
2018-08-13T16:39:00.418Z,42.39
2018-08-13T16:41:28.105Z,42.33
2018-08-13T16:43:55.828Z,43.16
2018-08-13T16:46:23.521Z,43.57
2018-08-13T16:48:51.215Z,43.24
2018-08-13T16:51:18.945Z,42.90
2018-08-13T16:53:46.704Z,43.01
2018-08-13T16:56:14.550Z,43.72
2018-08-13T16:58:42.294Z,43.85
2018-08-13T17:01:10.123Z,43.64
2018-08-13T17:03:37.822Z,42.92
2018-08-13T17:06:05.769Z,43.73
2018-08-13T17:08:33.603Z,43.42
2018-08-13T17:11:01.415Z,43.44
2018-08-13T17:13:29.329Z,43.31
2018-08-13T17:15:57.051Z,43.66
2018-08-13T17:18:24.809Z,44.02
2018-08-13T17:20:52.555Z,44.50
2018-08-13T17:23:20.388Z,44.49
2018-08-13T17:25:48.176Z,44.43
2018-08-13T17:28:15.966Z,43.90
2018-08-13T17:30:43.693Z,44.20
2018-08-13T17:33:11.509Z,44.59
2018-08-13T17:35:39.337Z,44.48
2018-08-13T17:38:08.681Z,44.89
2018-08-13T17:40:36.447Z,44.90
2018-08-13T17:43:05.071Z,45.19
2018-08-13T17:45:32.731Z,45.73
2018-08-13T17:48:00.425Z,46.06
2018-08-13T17:50:28.282Z,46.11
2018-08-13T17:52:56.217Z,46.14
2018-08-13T17:55:30.614Z,46.14
2018-08-13T17:57:58.385Z,46.37
2018-08-13T18:00:26.831Z,46.78
2018-08-13T18:02:54.601Z,46.43
2018-08-13T18:05:23.973Z,47.08
2018-08-13T18:07:52.285Z,47.56
2018-08-13T18:10:28.455Z,47.61
2018-08-13T18:12:56.917Z,47.86
2018-08-13T18:15:24.634Z,47.80
2018-08-13T18:17:52.517Z,47.97
2018-08-13T18:20:20.318Z,48.33
2018-08-13T18:22:48.088Z,48.86
2018-08-13T18:25:16.285Z,48.70
2018-08-13T18:27:45.462Z,48.81
2018-08-13T18:30:15.636Z,48.83
2018-08-13T18:32:43.409Z,49.17
2018-08-13T18:35:11.664Z,49.18
2018-08-13T18:37:39.475Z,49.17
2018-08-13T18:40:13.043Z,49.21
2018-08-13T18:42:40.741Z,49.70
2018-08-13T18:45:09.384Z,49.71
2018-08-13T18:47:37.300Z,50.10
2018-08-13T18:50:06.831Z,49.95
2018-08-13T18:52:34.516Z,49.97
2018-08-13T18:55:02.366Z,49.83
2018-08-13T18:57:30.145Z,50.03
2018-08-13T18:59:57.912Z,50.07
2018-08-13T19:02:25.683Z,51.09
2018-08-13T19:04:53.455Z,51.23
2018-08-13T19:07:21.168Z,50.83
2018-08-13T19:09:49.144Z,50.71
2018-08-13T19:12:16.859Z,50.57
2018-08-13T19:14:44.661Z,50.48
2018-08-13T19:17:12.408Z,50.93
2018-08-13T19:19:40.106Z,51.14
2018-08-13T19:22:07.864Z,51.67
2018-08-13T19:24:35.713Z,51.30
2018-08-13T19:27:03.571Z,51.65
2018-08-13T19:29:31.352Z,51.37
2018-08-13T19:31:59.175Z,52.37
2018-08-13T19:34:26.909Z,52.35
2018-08-13T19:36:54.727Z,52.19
2018-08-13T19:39:22.628Z,52.99
2018-08-13T19:41:50.452Z,52.58
2018-08-13T19:44:18.201Z,53.11
2018-08-13T19:46:46.102Z,52.53
2018-08-13T19:49:13.958Z,52.57
2018-08-13T19:51:41.677Z,52.40
2018-08-13T19:54:09.371Z,52.83
2018-08-13T19:56:37.330Z,52.29
2018-08-13T19:59:05.086Z,52.76
2018-08-13T20:01:32.850Z,52.73
2018-08-13T20:04:00.684Z,53.04
2018-08-13T20:06:28.467Z,52.96
2018-08-13T20:08:56.297Z,52.89
2018-08-13T20:11:24.074Z,53.39
2018-08-13T20:13:59.693Z,53.86
2018-08-13T20:16:27.381Z,53.32
2018-08-13T20:18:55.061Z,53.71
2018-08-13T20:21:22.778Z,53.61
2018-08-13T20:23:50.463Z,53.75
2018-08-13T20:26:19.100Z,53.84
2018-08-13T20:28:46.828Z,54.39
2018-08-13T20:31:14.544Z,54.11
2018-08-13T20:33:42.233Z,53.81
2018-08-13T20:36:09.966Z,53.97
2018-08-13T20:38:37.746Z,53.94
2018-08-13T20:41:05.441Z,53.98
2018-08-13T20:43:33.329Z,54.00
2018-08-13T20:46:01.009Z,54.92
2018-08-13T20:48:28.674Z,54.93
2018-08-13T20:50:56.453Z,54.82
2018-08-13T20:53:24.149Z,54.87
2018-08-13T20:55:51.821Z,54.90
2018-08-13T20:58:19.595Z,55.41
2018-08-13T21:00:47.446Z,54.98
2018-08-13T21:03:15.196Z,55.10
2018-08-13T21:05:43.006Z,55.77
2018-08-13T21:08:10.695Z,55.24
2018-08-13T21:10:38.405Z,55.35
2018-08-13T21:13:06.420Z,55.69
2018-08-13T21:15:34.125Z,55.63
2018-08-13T21:18:01.823Z,55.15
2018-08-13T21:20:29.625Z,55.77
2018-08-13T21:22:57.427Z,56.13
2018-08-13T21:25:25.248Z,55.73
2018-08-13T21:27:53.112Z,55.81
2018-08-13T21:30:20.872Z,55.30
2018-08-13T21:32:48.678Z,55.47
2018-08-13T21:35:19.101Z,56.11
2018-08-13T21:37:47.113Z,55.52
2018-08-13T21:40:14.853Z,55.35
2018-08-13T21:42:42.863Z,56.45
2018-08-13T21:45:11.150Z,55.76
2018-08-13T21:47:39.238Z,56.57
2018-08-13T21:50:18.937Z,56.36
2018-08-13T21:52:47.234Z,55.98
2018-08-13T21:55:14.987Z,56.31
2018-08-13T21:57:42.665Z,56.10
2018-08-13T22:00:35.295Z,55.79
2018-08-13T22:03:03.264Z,56.23
2018-08-13T22:05:31.153Z,55.88
2018-08-13T22:07:59.042Z,56.22
2018-08-13T22:10:26.821Z,56.14
2018-08-13T22:12:54.591Z,56.90
2018-08-13T22:15:29.566Z,56.29
2018-08-13T22:17:58.819Z,56.50
2018-08-13T22:20:26.957Z,56.88
2018-08-13T22:22:55.850Z,56.67
2018-08-13T22:25:26.257Z,57.26
2018-08-13T22:27:53.984Z,57.59
2018-08-13T22:30:21.790Z,58.43
2018-08-13T22:32:49.522Z,57.82
2018-08-13T22:35:17.316Z,57.19
2018-08-13T22:37:45.036Z,57.68
2018-08-13T22:40:15.376Z,57.87
2018-08-13T22:42:44.090Z,57.63
2018-08-13T22:45:12.014Z,58.45
2018-08-13T22:47:40.346Z,58.13
2018-08-13T22:50:09.631Z,59.49
2018-08-13T22:52:37.338Z,58.01
2018-08-13T22:55:06.698Z,58.96
2018-08-13T22:57:34.344Z,59.48
2018-08-13T23:00:02.192Z,59.90
2018-08-13T23:02:29.912Z,59.09
2018-08-13T23:04:57.652Z,59.00
2018-08-13T23:07:25.590Z,59.29
2018-08-13T23:09:53.307Z,59.68
2018-08-13T23:12:21.058Z,59.87
2018-08-13T23:14:48.884Z,59.92
2018-08-13T23:17:16.554Z,59.89
2018-08-13T23:19:44.271Z,61.70
2018-08-13T23:22:22.033Z,62.62
2018-08-13T23:24:49.706Z,61.88
2018-08-13T23:27:17.389Z,62.14
2018-08-13T23:29:45.092Z,62.41
2018-08-13T23:32:12.762Z,61.81
2018-08-13T23:34:40.476Z,63.24
2018-08-13T23:37:08.193Z,63.03
2018-08-13T23:39:35.836Z,63.92
2018-08-13T23:42:03.566Z,63.23
2018-08-13T23:44:31.278Z,62.43
2018-08-13T23:46:58.934Z,62.63
2018-08-13T23:49:26.612Z,62.77
2018-08-13T23:51:54.302Z,62.68
2018-08-13T23:54:22.025Z,62.89
2018-08-13T23:56:49.693Z,64.65
2018-08-13T23:59:17.497Z,66.63
